Terminal Aerodrome Forecast
Issued by NWS

Home | Current Version | Previous Version | Text Only | Print | Product List | Glossary On
Versions: 1 2 3 4 5 6 7 8 9 10 11 12 13 14 15 16 17 18 19
000
FTUS41 KGYX 280533
TAFAUG
TAF
KAUG 280533Z 2806/2906 19006KT 6SM HZ SCT010 SCT120
     FM281300 22012G18KT P6SM SCT050
     FM281700 22011G18KT P6SM OVC050 PROB30 2818/2821 P6SM -TSRA
      BKN050CB
     FM290000 31008KT P6SM SCT120=

USA.gov is the U.S. government's official web portal to all federal, state and local government web resources and services.